Terminal Aerodrome Forecast
Issued by NWS

Home | Current Version | Previous Version | Text Only | Print | Product List | Glossary On
Versions: 1 2 3 4 5 6 7 8 9 10 11 12
000
FTUS43 KSGF 211100
TAFJLN
TAF
KJLN 211120Z 2112/2212 17012KT P6SM SKC WS020/21040KT
     FM211500 21015G22KT P6SM SKC
     FM212330 18010KT P6SM SKC
     FM220600 18008KT P6SM SKC WS020/24040KT=

USA.gov is the U.S. government's official web portal to all federal, state and local government web resources and services.